sensor_id;sensor_type;location;lat;lon;timestamp;pressure;altitude;pressure_sealevel;temperature;humidity
20630;BME280;17386;43.846;25.950;2023-04-22T00:00:36;101002.69;;;14.59;100.00
20630;BME280;17386;43.846;25.950;2023-04-22T00:03:02;101007.09;;;14.60;100.00
20630;BME280;17386;43.846;25.950;2023-04-22T00:05:28;101000.81;;;14.61;100.00
20630;BME280;17386;43.846;25.950;2023-04-22T00:07:54;100989.69;;;14.52;100.00
20630;BME280;17386;43.846;25.950;2023-04-22T00:10:19;101004.22;;;14.65;100.00
20630;BME280;17386;43.846;25.950;2023-04-22T00:12:45;100999.66;;;14.67;100.00
20630;BME280;17386;43.846;25.950;2023-04-22T00:15:10;100999.66;;;14.67;100.00
20630;BME280;17386;43.846;25.950;2023-04-22T00:17:36;100994.53;;;14.62;100.00
20630;BME280;17386;43.846;25.950;2023-04-22T00:20:02;101004.38;;;14.62;100.00
20630;BME280;17386;43.846;25.950;2023-04-22T00:22:28;100994.75;;;14.58;100.00
20630;BME280;17386;43.846;25.950;2023-04-22T00:24:53;100994.59;;;14.61;100.00
20630;BME280;17386;43.846;25.950;2023-04-22T00:27:18;100998.22;;;14.60;100.00
20630;BME280;17386;43.846;25.950;2023-04-22T00:29:44;100999.06;;;14.60;100.00
20630;BME280;17386;43.846;25.950;2023-04-22T00:32:09;101005.38;;;14.59;100.00
20630;BME280;17386;43.846;25.950;2023-04-22T00:34:35;101007.19;;;14.59;100.00
20630;BME280;17386;43.846;25.950;2023-04-22T00:37:00;101011.88;;;14.54;100.00
20630;BME280;17386;43.846;25.950;2023-04-22T00:39:25;101010.22;;;14.51;100.00
20630;BME280;17386;43.846;25.950;2023-04-22T00:41:51;101005.13;;;14.45;100.00
20630;BME280;17386;43.846;25.950;2023-04-22T00:44:18;101009.78;;;14.41;100.00
20630;BME280;17386;43.846;25.950;2023-04-22T00:46:43;101026.88;;;14.37;100.00
20630;BME280;17386;43.846;25.950;2023-04-22T00:49:09;101032.06;;;14.40;100.00
20630;BME280;17386;43.846;25.950;2023-04-22T00:51:35;101016.84;;;14.42;100.00
20630;BME280;17386;43.846;25.950;2023-04-22T00:54:00;101006.53;;;14.35;100.00
20630;BME280;17386;43.846;25.950;2023-04-22T00:56:29;101015.78;;;14.46;100.00
20630;BME280;17386;43.846;25.950;2023-04-22T00:58:56;101015.66;;;14.49;100.00
20630;BME280;17386;43.846;25.950;2023-04-22T01:01:22;101025.16;;;14.36;100.00
20630;BME280;17386;43.846;25.950;2023-04-22T01:03:48;101013.44;;;14.39;100.00
20630;BME280;17386;43.846;25.950;2023-04-22T01:06:17;101003.59;;;14.39;100.00
20630;BME280;17386;43.846;25.950;2023-04-22T01:08:43;101010.63;;;14.23;100.00
20630;BME280;17386;43.846;25.950;2023-04-22T01:11:09;101015.53;;;14.32;100.00
20630;BME280;17386;43.846;25.950;2023-04-22T01:13:34;101023.34;;;14.37;100.00
20630;BME280;17386;43.846;25.950;2023-04-22T01:16:02;101014.28;;;14.39;100.00
20630;BME280;17386;43.846;25.950;2023-04-22T01:18:31;101014.38;;;14.38;100.00
20630;BME280;17386;43.846;25.950;2023-04-22T01:20:56;101011.78;;;14.36;100.00
20630;BME280;17386;43.846;25.950;2023-04-22T01:23:22;101020.47;;;14.41;100.00
20630;BME280;17386;43.846;25.950;2023-04-22T01:25:48;101010.06;;;14.35;100.00
20630;BME280;17386;43.846;25.950;2023-04-22T01:28:15;101017.78;;;14.41;100.00
20630;BME280;17386;43.846;25.950;2023-04-22T01:30:42;101013.44;;;14.39;100.00
20630;BME280;17386;43.846;25.950;2023-04-22T01:33:08;101009.03;;;14.38;100.00
20630;BME280;17386;43.846;25.950;2023-04-22T01:35:35;101007.22;;;14.38;100.00
20630;BME280;17386;43.846;25.950;2023-04-22T01:38:04;101000.31;;;14.34;100.00
20630;BME280;17386;43.846;25.950;2023-04-22T01:40:31;101003.69;;;14.38;100.00
20630;BME280;17386;43.846;25.950;2023-04-22T01:42:59;101007.22;;;14.38;100.00
20630;BME280;17386;43.846;25.950;2023-04-22T01:45:26;101003.69;;;14.38;100.00
20630;BME280;17386;43.846;25.950;2023-04-22T01:47:52;101000.31;;;14.34;100.00
20630;BME280;17386;43.846;25.950;2023-04-22T01:50:18;101005.69;;;14.33;100.00
20630;BME280;17386;43.846;25.950;2023-04-22T01:52:43;101009.31;;;14.32;100.00
20630;BME280;17386;43.846;25.950;2023-04-22T01:55:09;100988.47;;;14.21;100.00
20630;BME280;17386;43.846;25.950;2023-04-22T01:57:34;100996.41;;;14.22;100.00
20630;BME280;17386;43.846;25.950;2023-04-22T02:00:00;100995.66;;;14.19;100.00
20630;BME280;17386;43.846;25.950;2023-04-22T02:02:26;100988.66;;;14.16;100.00
20630;BME280;17386;43.846;25.950;2023-04-22T02:04:51;100993.22;;;14.14;100.00
20630;BME280;17386;43.846;25.950;2023-04-22T02:07:17;100994.38;;;14.09;100.00
20630;BME280;17386;43.846;25.950;2023-04-22T02:09:42;100990.94;;;14.05;100.00
20630;BME280;17386;43.846;25.950;2023-04-22T02:12:08;100981.13;;;14.06;100.00
20630;BME280;17386;43.846;25.950;2023-04-22T02:14:33;100985.50;;;14.08;100.00
20630;BME280;17386;43.846;25.950;2023-04-22T02:16:59;100981.88;;;14.09;100.00
20630;BME280;17386;43.846;25.950;2023-04-22T02:19:26;100990.84;;;14.08;100.00
20630;BME280;17386;43.846;25.950;2023-04-22T02:21:52;100989.97;;;14.08;100.00
20630;BME280;17386;43.846;25.950;2023-04-22T02:24:17;100982.00;;;14.06;100.00
20630;BME280;17386;43.846;25.950;2023-04-22T02:26:43;100984.75;;;14.05;100.00
20630;BME280;17386;43.846;25.950;2023-04-22T02:29:08;100982.06;;;14.05;100.00
20630;BME280;17386;43.846;25.950;2023-04-22T02:31:34;100975.94;;;14.03;100.00
20630;BME280;17386;43.846;25.950;2023-04-22T02:33:59;100979.41;;;14.05;100.00
20630;BME280;17386;43.846;25.950;2023-04-22T02:36:25;100985.78;;;14.02;100.00
20630;BME280;17386;43.846;25.950;2023-04-22T02:38:52;100989.38;;;14.01;100.00
20630;BME280;17386;43.846;25.950;2023-04-22T02:41:17;100986.63;;;14.03;100.00
20630;BME280;17386;43.846;25.950;2023-04-22T02:43:42;100990.09;;;14.05;100.00
20630;BME280;17386;43.846;25.950;2023-04-22T02:46:11;100988.28;;;14.05;100.00
20630;BME280;17386;43.846;25.950;2023-04-22T02:48:37;100976.06;;;14.00;100.00
20630;BME280;17386;43.846;25.950;2023-04-22T02:51:03;100993.84;;;14.01;100.00
20630;BME280;17386;43.846;25.950;2023-04-22T02:53:28;100986.03;;;13.96;100.00
20630;BME280;17386;43.846;25.950;2023-04-22T02:55:54;100991.66;;;13.90;100.00
20630;BME280;17386;43.846;25.950;2023-04-22T02:58:21;100988.28;;;13.86;100.00
20630;BME280;17386;43.846;25.950;2023-04-22T03:00:46;100988.47;;;13.82;100.00
20630;BME280;17386;43.846;25.950;2023-04-22T03:03:12;100991.22;;;13.80;100.00
20630;BME280;17386;43.846;25.950;2023-04-22T03:05:37;100988.59;;;13.79;100.00
20630;BME280;17386;43.846;25.950;2023-04-22T03:08:02;100987.97;;;13.74;100.00
20630;BME280;17386;43.846;25.950;2023-04-22T03:10:28;100990.91;;;13.67;100.00
20630;BME280;17386;43.846;25.950;2023-04-22T03:12:53;100989.38;;;13.62;100.00
20630;BME280;17386;43.846;25.950;2023-04-22T03:15:19;100990.31;;;13.61;100.00
20630;BME280;17386;43.846;25.950;2023-04-22T03:17:44;100988.69;;;13.57;100.00
20630;BME280;17386;43.846;25.950;2023-04-22T03:20:10;100993.16;;;13.56;100.00
20630;BME280;17386;43.846;25.950;2023-04-22T03:22:35;100988.84;;;13.54;100.00
20630;BME280;17386;43.846;25.950;2023-04-22T03:25:01;100996.91;;;13.52;100.00
20630;BME280;17386;43.846;25.950;2023-04-22T03:27:27;100969.41;;;13.30;100.00
20630;BME280;17386;43.846;25.950;2023-04-22T03:29:52;100996.25;;;13.47;100.00
20630;BME280;17386;43.846;25.950;2023-04-22T03:32:17;100995.75;;;13.37;100.00
20630;BME280;17386;43.846;25.950;2023-04-22T03:34:43;100997.91;;;13.29;100.00
20630;BME280;17386;43.846;25.950;2023-04-22T03:37:08;100991.78;;;13.27;100.00
20630;BME280;17386;43.846;25.950;2023-04-22T03:39:34;100998.84;;;13.28;100.00
20630;BME280;17386;43.846;25.950;2023-04-22T03:41:59;100999.84;;;13.26;100.00
20630;BME280;17386;43.846;25.950;2023-04-22T03:44:25;101000.56;;;13.29;100.00
20630;BME280;17386;43.846;25.950;2023-04-22T03:46:51;101016.06;;;13.20;100.00
20630;BME280;17386;43.846;25.950;2023-04-22T03:49:16;101025.88;;;13.19;100.00
20630;BME280;17386;43.846;25.950;2023-04-22T03:51:41;101020.53;;;13.19;100.00
20630;BME280;17386;43.846;25.950;2023-04-22T03:54:07;101026.75;;;13.20;100.00
20630;BME280;17386;43.846;25.950;2023-04-22T03:56:32;101036.72;;;13.14;100.00
20630;BME280;17386;43.846;25.950;2023-04-22T03:58:58;101042.25;;;13.10;100.00
20630;BME280;17386;43.846;25.950;2023-04-22T04:01:23;101042.31;;;13.08;100.00
20630;BME280;17386;43.846;25.950;2023-04-22T04:03:48;101048.59;;;13.07;100.00
20630;BME280;17386;43.846;25.950;2023-04-22T04:06:14;101040.66;;;13.06;100.00
20630;BME280;17386;43.846;25.950;2023-04-22T04:08:39;101043.41;;;13.04;100.00
20630;BME280;17386;43.846;25.950;2023-04-22T04:11:05;101049.44;;;13.08;100.00
20630;BME280;17386;43.846;25.950;2023-04-22T04:13:30;101052.25;;;13.05;100.00
20630;BME280;17386;43.846;25.950;2023-04-22T04:15:57;101073.22;;;13.14;100.00
20630;BME280;17386;43.846;25.950;2023-04-22T04:18:24;101074.84;;;13.18;100.00
20630;BME280;17386;43.846;25.950;2023-04-22T04:20:49;101071.31;;;13.18;100.00
20630;BME280;17386;43.846;25.950;2023-04-22T04:23:15;101072.06;;;13.21;100.00
20630;BME280;17386;43.846;25.950;2023-04-22T04:25:40;101075.41;;;13.26;100.00
20630;BME280;17386;43.846;25.950;2023-04-22T04:28:09;101080.59;;;13.29;100.00
20630;BME280;17386;43.846;25.950;2023-04-22T04:30:36;101078.00;;;13.28;100.00
20630;BME280;17386;43.846;25.950;2023-04-22T04:33:02;101070.09;;;13.26;100.00
20630;BME280;17386;43.846;25.950;2023-04-22T04:35:33;101084.66;;;13.39;100.00
20630;BME280;17386;43.846;25.950;2023-04-22T04:38:00;101101.38;;;13.43;100.00
20630;BME280;17386;43.846;25.950;2023-04-22T04:40:26;101101.19;;;13.48;100.00
20630;BME280;17386;43.846;25.950;2023-04-22T04:42:53;101102.00;;;13.50;100.00
20630;BME280;17386;43.846;25.950;2023-04-22T04:45:20;101102.53;;;13.58;100.00
20630;BME280;17386;43.846;25.950;2023-04-22T04:47:46;101115.69;;;13.62;100.00
20630;BME280;17386;43.846;25.950;2023-04-22T04:50:15;101120.91;;;13.65;100.00
20630;BME280;17386;43.846;25.950;2023-04-22T04:52:40;101123.38;;;13.70;100.00
20630;BME280;17386;43.846;25.950;2023-04-22T04:55:06;101130.25;;;13.76;100.00
20630;BME280;17386;43.846;25.950;2023-04-22T04:57:31;101135.59;;;13.76;100.00
20630;BME280;17386;43.846;25.950;2023-04-22T04:59:57;101139.28;;;13.73;100.00
20630;BME280;17386;43.846;25.950;2023-04-22T05:02:22;101133.19;;;13.69;100.00
20630;BME280;17386;43.846;25.950;2023-04-22T05:04:48;101140.19;;;13.72;100.00
20630;BME280;17386;43.846;25.950;2023-04-22T05:07:13;101146.09;;;13.80;100.00
20630;BME280;17386;43.846;25.950;2023-04-22T05:09:39;101137.84;;;13.86;100.00
20630;BME280;17386;43.846;25.950;2023-04-22T05:12:04;101131.81;;;13.81;100.00
20630;BME280;17386;43.846;25.950;2023-04-22T05:14:30;101135.69;;;13.94;100.00
20630;BME280;17386;43.846;25.950;2023-04-22T05:16:55;101137.16;;;14.02;100.00
20630;BME280;17386;43.846;25.950;2023-04-22T05:19:21;101145.78;;;14.08;100.00
20630;BME280;17386;43.846;25.950;2023-04-22T05:21:46;101142.88;;;14.13;100.00
20630;BME280;17386;43.846;25.950;2023-04-22T05:24:11;101159.41;;;14.22;100.00
20630;BME280;17386;43.846;25.950;2023-04-22T05:26:37;101157.31;;;14.29;100.00
20630;BME280;17386;43.846;25.950;2023-04-22T05:29:02;101158.91;;;14.33;100.00
20630;BME280;17386;43.846;25.950;2023-04-22T05:31:28;101162.13;;;14.41;100.00
20630;BME280;17386;43.846;25.950;2023-04-22T05:33:53;101168.47;;;14.39;100.00
20630;BME280;17386;43.846;25.950;2023-04-22T05:36:19;101174.34;;;14.47;100.00
20630;BME280;17386;43.846;25.950;2023-04-22T05:38:44;101167.09;;;14.50;100.00
20630;BME280;17386;43.846;25.950;2023-04-22T05:41:09;101174.75;;;14.58;100.00
20630;BME280;17386;43.846;25.950;2023-04-22T05:43:35;101172.50;;;14.68;100.00
20630;BME280;17386;43.846;25.950;2023-04-22T05:46:00;101165.94;;;14.75;100.00
20630;BME280;17386;43.846;25.950;2023-04-22T05:48:26;101161.25;;;14.80;100.00
20630;BME280;17386;43.846;25.950;2023-04-22T05:50:51;101167.28;;;14.85;100.00
20630;BME280;17386;43.846;25.950;2023-04-22T05:53:18;101171.47;;;14.91;100.00
20630;BME280;17386;43.846;25.950;2023-04-22T05:55:43;101173.91;;;14.95;100.00
20630;BME280;17386;43.846;25.950;2023-04-22T05:58:09;101168.28;;;15.01;100.00
20630;BME280;17386;43.846;25.950;2023-04-22T06:00:34;101174.06;;;15.11;100.00
20630;BME280;17386;43.846;25.950;2023-04-22T06:03:00;101174.56;;;15.19;100.00
20630;BME280;17386;43.846;25.950;2023-04-22T06:05:25;101170.56;;;15.28;100.00
20630;BME280;17386;43.846;25.950;2023-04-22T06:07:50;101181.78;;;15.36;100.00
20630;BME280;17386;43.846;25.950;2023-04-22T06:10:16;101184.06;;;15.44;100.00
20630;BME280;17386;43.846;25.950;2023-04-22T06:12:41;101192.66;;;15.50;100.00
20630;BME280;17386;43.846;25.950;2023-04-22T06:15:07;101185.47;;;15.52;100.00
20630;BME280;17386;43.846;25.950;2023-04-22T06:17:32;101197.69;;;15.58;100.00
20630;BME280;17386;43.846;25.950;2023-04-22T06:19:58;101207.00;;;15.68;100.00
20630;BME280;17386;43.846;25.950;2023-04-22T06:22:23;101211.34;;;15.71;100.00
20630;BME280;17386;43.846;25.950;2023-04-22T06:24:48;101227.97;;;15.77;100.00
20630;BME280;17386;43.846;25.950;2023-04-22T06:27:14;101221.69;;;15.59;100.00
20630;BME280;17386;43.846;25.950;2023-04-22T06:29:39;101227.72;;;15.46;100.00
20630;BME280;17386;43.846;25.950;2023-04-22T06:32:05;101234.59;;;15.51;100.00
20630;BME280;17386;43.846;25.950;2023-04-22T06:34:30;101233.28;;;15.41;100.00
20630;BME280;17386;43.846;25.950;2023-04-22T06:36:56;101233.75;;;15.32;100.00
20630;BME280;17386;43.846;25.950;2023-04-22T06:39:21;101238.66;;;15.41;100.00
20630;BME280;17386;43.846;25.950;2023-04-22T06:41:47;101234.25;;;15.40;100.00
20630;BME280;17386;43.846;25.950;2023-04-22T06:44:13;101233.16;;;15.44;100.00
20630;BME280;17386;43.846;25.950;2023-04-22T06:46:38;101241.19;;;15.44;100.00
20630;BME280;17386;43.846;25.950;2023-04-22T06:49:04;101239.97;;;15.51;100.00
20630;BME280;17386;43.846;25.950;2023-04-22T06:51:29;101247.66;;;15.57;100.00
20630;BME280;17386;43.846;25.950;2023-04-22T06:53:55;101252.91;;;15.60;100.00
20630;BME280;17386;43.846;25.950;2023-04-22T06:56:23;101241.66;;;15.71;100.00
20630;BME280;17386;43.846;25.950;2023-04-22T06:58:48;101248.72;;;15.91;100.00
20630;BME280;17386;43.846;25.950;2023-04-22T07:01:14;101241.81;;;16.04;98.67
20630;BME280;17386;43.846;25.950;2023-04-22T07:03:39;101253.09;;;16.11;93.58
20630;BME280;17386;43.846;25.950;2023-04-22T07:06:05;101256.03;;;16.24;89.51
20630;BME280;17386;43.846;25.950;2023-04-22T07:08:30;101262.41;;;16.38;86.99
20630;BME280;17386;43.846;25.950;2023-04-22T07:10:56;101264.47;;;16.51;86.79
20630;BME280;17386;43.846;25.950;2023-04-22T07:13:22;101260.97;;;16.66;84.23
20630;BME280;17386;43.846;25.950;2023-04-22T07:15:47;101263.22;;;16.75;77.28
20630;BME280;17386;43.846;25.950;2023-04-22T07:18:13;101273.44;;;16.84;73.53
20630;BME280;17386;43.846;25.950;2023-04-22T07:20:38;101271.22;;;16.92;72.91
20630;BME280;17386;43.846;25.950;2023-04-22T07:23:04;101268.38;;;16.95;71.95
20630;BME280;17386;43.846;25.950;2023-04-22T07:25:29;101270.66;;;17.03;71.11
20630;BME280;17386;43.846;25.950;2023-04-22T07:27:55;101272.06;;;17.10;70.36
20630;BME280;17386;43.846;25.950;2023-04-22T07:30:20;101276.63;;;17.08;68.28
20630;BME280;17386;43.846;25.950;2023-04-22T07:32:45;101279.72;;;17.01;66.34
20630;BME280;17386;43.846;25.950;2023-04-22T07:35:11;101276.91;;;16.86;63.29
20630;BME280;17386;43.846;25.950;2023-04-22T07:37:36;101281.59;;;16.83;64.89
20630;BME280;17386;43.846;25.950;2023-04-22T07:40:02;101283.94;;;16.89;66.10
20630;BME280;17386;43.846;25.950;2023-04-22T07:42:27;101276.44;;;16.95;66.54
20630;BME280;17386;43.846;25.950;2023-04-22T07:44:53;101272.38;;;17.04;66.08
20630;BME280;17386;43.846;25.950;2023-04-22T07:47:18;101277.25;;;17.13;66.46
20630;BME280;17386;43.846;25.950;2023-04-22T07:49:44;101281.94;;;17.26;65.76
20630;BME280;17386;43.846;25.950;2023-04-22T07:52:09;101279.06;;;17.29;64.44
20630;BME280;17386;43.846;25.950;2023-04-22T07:54:35;101283.59;;;17.28;62.82
20630;BME280;17386;43.846;25.950;2023-04-22T07:57:00;101288.94;;;17.28;63.33
20630;BME280;17386;43.846;25.950;2023-04-22T07:59:26;101289.03;;;17.27;63.70
20630;BME280;17386;43.846;25.950;2023-04-22T08:01:51;101286.75;;;17.36;63.36
20630;BME280;17386;43.846;25.950;2023-04-22T08:04:17;101286.88;;;17.33;62.58
20630;BME280;17386;43.846;25.950;2023-04-22T08:06:42;101285.50;;;17.42;62.86
20630;BME280;17386;43.846;25.950;2023-04-22T08:09:07;101285.97;;;17.66;62.52
20630;BME280;17386;43.846;25.950;2023-04-22T08:11:34;101285.72;;;17.86;61.35
20630;BME280;17386;43.846;25.950;2023-04-22T08:14:00;101290.22;;;18.01;59.21
20630;BME280;17386;43.846;25.950;2023-04-22T08:16:25;101298.22;;;17.87;58.99
20630;BME280;17386;43.846;25.950;2023-04-22T08:18:51;101303.16;;;17.95;58.89
20630;BME280;17386;43.846;25.950;2023-04-22T08:21:16;101299.75;;;18.07;59.33
20630;BME280;17386;43.846;25.950;2023-04-22T08:23:41;101295.91;;;18.27;58.42
20630;BME280;17386;43.846;25.950;2023-04-22T08:26:07;101297.88;;;18.39;57.58
20630;BME280;17386;43.846;25.950;2023-04-22T08:28:33;101300.28;;;18.44;58.24
20630;BME280;17386;43.846;25.950;2023-04-22T08:30:59;101302.56;;;18.36;58.19
20630;BME280;17386;43.846;25.950;2023-04-22T08:33:25;101301.28;;;18.11;58.40
20630;BME280;17386;43.846;25.950;2023-04-22T08:35:50;101294.53;;;18.04;60.15
20630;BME280;17386;43.846;25.950;2023-04-22T08:38:15;101303.06;;;17.96;61.66
20630;BME280;17386;43.846;25.950;2023-04-22T08:40:41;101300.25;;;17.98;61.83
20630;BME280;17386;43.846;25.950;2023-04-22T08:43:07;101309.28;;;17.97;62.58
20630;BME280;17386;43.846;25.950;2023-04-22T08:45:33;101310.84;;;18.01;61.84
20630;BME280;17386;43.846;25.950;2023-04-22T08:47:59;101310.75;;;18.02;60.75
20630;BME280;17386;43.846;25.950;2023-04-22T08:50:27;101316.75;;;18.08;60.57
20630;BME280;17386;43.846;25.950;2023-04-22T08:52:54;101305.91;;;18.09;61.17
20630;BME280;17386;43.846;25.950;2023-04-22T08:55:19;101308.25;;;18.15;60.50
20630;BME280;17386;43.846;25.950;2023-04-22T08:57:46;101305.50;;;18.31;60.16
20630;BME280;17386;43.846;25.950;2023-04-22T09:00:12;101317.06;;;18.63;58.16
20630;BME280;17386;43.846;25.950;2023-04-22T09:02:38;101311.56;;;18.95;55.52
20630;BME280;17386;43.846;25.950;2023-04-22T09:05:09;101316.28;;;19.05;53.19
20630;BME280;17386;43.846;25.950;2023-04-22T09:07:35;101307.63;;;19.00;53.79
20630;BME280;17386;43.846;25.950;2023-04-22T09:10:03;101312.81;;;19.03;53.26
20630;BME280;17386;43.846;25.950;2023-04-22T09:12:28;101317.94;;;19.08;52.61
20630;BME280;17386;43.846;25.950;2023-04-22T09:14:54;101312.25;;;19.12;51.28
20630;BME280;17386;43.846;25.950;2023-04-22T09:17:34;101306.56;;;18.89;48.40
20630;BME280;17386;43.846;25.950;2023-04-22T09:20:04;101304.63;;;18.91;50.11
20630;BME280;17386;43.846;25.950;2023-04-22T09:23:00;101304.28;;;19.11;51.21
20630;BME280;17386;43.846;25.950;2023-04-22T09:25:27;101293.97;;;19.18;52.05
20630;BME280;17386;43.846;25.950;2023-04-22T09:27:54;101291.97;;;19.35;52.37
20630;BME280;17386;43.846;25.950;2023-04-22T09:30:34;101292.22;;;19.45;51.63
20630;BME280;17386;43.846;25.950;2023-04-22T09:33:01;101300.09;;;19.77;50.99
20630;BME280;17386;43.846;25.950;2023-04-22T09:35:31;101296.22;;;19.81;51.81
20630;BME280;17386;43.846;25.950;2023-04-22T09:37:58;101290.53;;;19.85;50.92
20630;BME280;17386;43.846;25.950;2023-04-22T09:40:24;101280.81;;;19.83;49.85
20630;BME280;17386;43.846;25.950;2023-04-22T09:42:52;101289.56;;;19.86;50.62
20630;BME280;17386;43.846;25.950;2023-04-22T09:48:21;101287.41;;;20.06;47.77
20630;BME280;17386;43.846;25.950;2023-04-22T09:50:49;101283.16;;;20.02;47.72
20630;BME280;17386;43.846;25.950;2023-04-22T09:53:17;101284.59;;;20.07;47.32
20630;BME280;17386;43.846;25.950;2023-04-22T09:55:48;101276.50;;;20.07;44.08
20630;BME280;17386;43.846;25.950;2023-04-22T09:58:19;101274.59;;;19.95;42.39
20630;BME280;17386;43.846;25.950;2023-04-22T10:01:03;101278.34;;;20.07;43.41
20630;BME280;17386;43.846;25.950;2023-04-22T10:03:28;101275.00;;;19.89;43.46
20630;BME280;17386;43.846;25.950;2023-04-22T10:05:54;101266.34;;;19.98;43.42
20630;BME280;17386;43.846;25.950;2023-04-22T10:08:19;101256.78;;;20.19;44.25
20630;BME280;17386;43.846;25.950;2023-04-22T10:10:45;101260.63;;;20.42;43.10
20630;BME280;17386;43.846;25.950;2023-04-22T10:13:11;101252.03;;;20.63;42.68
20630;BME280;17386;43.846;25.950;2023-04-22T10:15:50;101249.91;;;20.93;42.05
20630;BME280;17386;43.846;25.950;2023-04-22T10:18:27;101252.78;;;21.41;41.28
20630;BME280;17386;43.846;25.950;2023-04-22T10:20:55;101240.81;;;21.80;39.20
20630;BME280;17386;43.846;25.950;2023-04-22T10:23:22;101237.38;;;22.02;38.19
20630;BME280;17386;43.846;25.950;2023-04-22T10:25:52;101235.03;;;22.22;37.63
20630;BME280;17386;43.846;25.950;2023-04-22T10:28:19;101234.00;;;22.47;37.29
20630;BME280;17386;43.846;25.950;2023-04-22T10:30:45;101233.09;;;22.35;36.77
20630;BME280;17386;43.846;25.950;2023-04-22T10:41:32;101219.44;;;22.25;36.50
20630;BME280;17386;43.846;25.950;2023-04-22T10:43:59;101221.25;;;22.01;36.78
20630;BME280;17386;43.846;25.950;2023-04-22T10:49:13;101219.84;;;21.84;39.23
20630;BME280;17386;43.846;25.950;2023-04-22T10:51:43;101216.91;;;22.11;38.66
20630;BME280;17386;43.846;25.950;2023-04-22T10:57:18;101222.13;;;22.72;36.30
20630;BME280;17386;43.846;25.950;2023-04-22T11:02:14;101224.06;;;22.70;37.98
20630;BME280;17386;43.846;25.950;2023-04-22T11:04:41;101215.06;;;22.58;39.09
20630;BME280;17386;43.846;25.950;2023-04-22T11:15:17;101210.16;;;21.93;41.16
20630;BME280;17386;43.846;25.950;2023-04-22T11:17:50;101216.13;;;21.61;42.32
20630;BME280;17386;43.846;25.950;2023-04-22T11:20:16;101219.44;;;21.41;42.17
20630;BME280;17386;43.846;25.950;2023-04-22T11:22:44;101216.56;;;21.06;41.73
20630;BME280;17386;43.846;25.950;2023-04-22T11:25:10;101215.28;;;20.98;41.97
20630;BME280;17386;43.846;25.950;2023-04-22T11:27:37;101209.25;;;21.08;43.17
20630;BME280;17386;43.846;25.950;2023-04-22T11:32:39;101203.41;;;21.14;44.08
20630;BME280;17386;43.846;25.950;2023-04-22T11:35:07;101201.28;;;20.93;44.12
20630;BME280;17386;43.846;25.950;2023-04-22T11:37:47;101204.41;;;20.74;44.59
20630;BME280;17386;43.846;25.950;2023-04-22T11:40:16;101199.13;;;20.73;43.90
20630;BME280;17386;43.846;25.950;2023-04-22T11:42:42;101193.28;;;20.79;44.76
20630;BME280;17386;43.846;25.950;2023-04-22T11:45:08;101200.63;;;20.77;45.41
20630;BME280;17386;43.846;25.950;2023-04-22T11:47:35;101199.34;;;20.83;45.32
20630;BME280;17386;43.846;25.950;2023-04-22T11:50:03;101202.69;;;20.86;45.80
20630;BME280;17386;43.846;25.950;2023-04-22T11:52:53;101203.31;;;20.90;44.59
20630;BME280;17386;43.846;25.950;2023-04-22T11:58:07;101195.72;;;20.44;43.88
20630;BME280;17386;43.846;25.950;2023-04-22T12:00:41;101202.34;;;20.65;44.81
20630;BME280;17386;43.846;25.950;2023-04-22T12:05:39;101191.91;;;20.61;44.53
20630;BME280;17386;43.846;25.950;2023-04-22T12:08:07;101203.56;;;20.61;45.02
20630;BME280;17386;43.846;25.950;2023-04-22T12:10:38;101204.19;;;20.65;45.33
20630;BME280;17386;43.846;25.950;2023-04-22T12:13:04;101202.59;;;20.62;43.88
20630;BME280;17386;43.846;25.950;2023-04-22T12:15:41;101187.91;;;20.66;44.32
20630;BME280;17386;43.846;25.950;2023-04-22T12:18:07;101191.47;;;20.67;44.43
20630;BME280;17386;43.846;25.950;2023-04-22T12:20:35;101177.75;;;20.70;44.25
20630;BME280;17386;43.846;25.950;2023-04-22T12:23:00;101187.03;;;20.66;43.90
20630;BME280;17386;43.846;25.950;2023-04-22T12:25:26;101185.97;;;20.56;43.84
20630;BME280;17386;43.846;25.950;2023-04-22T12:27:51;101186.03;;;20.41;44.08
20630;BME280;17386;43.846;25.950;2023-04-22T12:30:17;101188.28;;;20.35;43.63
20630;BME280;17386;43.846;25.950;2023-04-22T12:32:42;101177.72;;;20.44;42.84
20630;BME280;17386;43.846;25.950;2023-04-22T12:35:08;101181.97;;;20.48;42.80
20630;BME280;17386;43.846;25.950;2023-04-22T12:37:34;101181.22;;;20.59;42.69
20630;BME280;17386;43.846;25.950;2023-04-22T12:39:59;101181.09;;;20.61;42.37
20630;BME280;17386;43.846;25.950;2023-04-22T12:42:25;101185.84;;;20.70;40.81
20630;BME280;17386;43.846;25.950;2023-04-22T12:44:50;101181.19;;;20.72;41.21
20630;BME280;17386;43.846;25.950;2023-04-22T12:47:15;101175.03;;;20.70;41.57
20630;BME280;17386;43.846;25.950;2023-04-22T12:49:42;101179.56;;;20.69;41.53
20630;BME280;17386;43.846;25.950;2023-04-22T12:52:08;101177.09;;;20.66;42.56
20630;BME280;17386;43.846;25.950;2023-04-22T12:54:34;101169.63;;;20.70;43.42
20630;BME280;17386;43.846;25.950;2023-04-22T12:56:59;101169.31;;;20.74;43.56
20630;BME280;17386;43.846;25.950;2023-04-22T12:59:26;101169.63;;;20.70;43.31
20630;BME280;17386;43.846;25.950;2023-04-22T13:01:52;101172.03;;;20.62;43.38
20630;BME280;17386;43.846;25.950;2023-04-22T13:04:20;101164.69;;;20.51;43.29
20630;BME280;17386;43.846;25.950;2023-04-22T13:06:45;101173.28;;;20.31;43.89